createdAt,value
2023-01-17T00:00:32.505Z,0.65
2023-01-17T00:01:32.684Z,1.02
2023-01-17T00:02:32.528Z,1.59
2023-01-17T00:03:32.544Z,0.88
2023-01-17T00:04:32.425Z,0.61
2023-01-17T00:05:32.526Z,1.76
2023-01-17T00:06:32.527Z,1.40
2023-01-17T00:07:32.505Z,1.04
2023-01-17T00:08:32.453Z,1.46
2023-01-17T00:09:32.545Z,0.39
2023-01-17T00:10:32.451Z,1.09
2023-01-17T00:11:32.665Z,1.24
2023-01-17T00:12:32.609Z,1.24
2023-01-17T00:13:32.604Z,1.16
2023-01-17T00:14:32.754Z,1.62
2023-01-17T00:15:32.657Z,1.81
2023-01-17T00:16:32.543Z,1.17
2023-01-17T00:17:32.656Z,1.22
2023-01-17T00:18:32.657Z,1.13
2023-01-17T00:19:32.542Z,0.57
2023-01-17T00:20:32.662Z,0.95
2023-01-17T00:21:32.569Z,1.68
2023-01-17T00:22:32.661Z,1.70
2023-01-17T00:23:32.753Z,0.44
2023-01-17T00:24:32.709Z,0.59
2023-01-17T00:25:32.731Z,0.58
2023-01-17T00:26:32.773Z,0.80
2023-01-17T00:27:32.819Z,0.92
2023-01-17T00:28:32.745Z,1.22
2023-01-17T00:29:32.717Z,0.95
2023-01-17T00:30:32.855Z,0.96
2023-01-17T00:31:32.883Z,1.35
2023-01-17T00:32:32.925Z,1.81
2023-01-17T00:33:32.871Z,0.53
2023-01-17T00:34:32.906Z,0.75
2023-01-17T00:35:32.949Z,1.14
2023-01-17T00:36:32.831Z,0.69
2023-01-17T00:37:33.168Z,0.27
2023-01-17T00:38:32.792Z,0.88
2023-01-17T00:39:32.987Z,0.46
2023-01-17T00:40:32.794Z,0.20
2023-01-17T00:41:33.011Z,1.50
2023-01-17T00:42:32.813Z,0.38
2023-01-17T00:43:32.949Z,0.67
2023-01-17T00:44:32.908Z,0.54
2023-01-17T00:45:32.948Z,1.23
2023-01-17T00:46:33.070Z,0.93
2023-01-17T00:47:33.000Z,0.87
2023-01-17T00:48:32.984Z,1.43
2023-01-17T00:49:32.956Z,1.11
2023-01-17T00:50:33.413Z,1.35
2023-01-17T00:51:33.024Z,1.24
2023-01-17T00:52:33.022Z,0.32
2023-01-17T00:53:33.656Z,0.79
2023-01-17T00:54:33.067Z,0.73
2023-01-17T00:55:33.072Z,0.32
2023-01-17T00:56:33.142Z,0.89
2023-01-17T00:57:33.018Z,1.34
2023-01-17T00:58:33.015Z,0.98
2023-01-17T00:59:33.220Z,0.21
2023-01-17T01:00:33.266Z,0.14
2023-01-17T01:01:33.302Z,0.38
2023-01-17T01:02:33.247Z,1.26
2023-01-17T01:03:33.247Z,1.87
2023-01-17T01:04:33.412Z,1.10
2023-01-17T01:05:33.207Z,1.58
2023-01-17T01:06:33.301Z,1.56
2023-01-17T01:07:33.260Z,1.47
2023-01-17T01:08:33.150Z,1.44
2023-01-17T01:09:33.184Z,1.34
2023-01-17T01:10:33.357Z,2.14
2023-01-17T01:11:33.493Z,2.39
2023-01-17T01:12:33.376Z,1.08
2023-01-17T01:13:33.379Z,2.14
2023-01-17T01:14:33.442Z,1.15
2023-01-17T01:15:33.413Z,1.45
2023-01-17T01:16:33.489Z,2.31
2023-01-17T01:17:33.459Z,0.45
2023-01-17T01:18:33.339Z,0.07
2023-01-17T01:19:33.377Z,0.55
2023-01-17T01:20:33.349Z,1.47
2023-01-17T01:21:33.573Z,1.10
2023-01-17T01:22:33.404Z,0.96
2023-01-17T01:23:33.317Z,1.05
2023-01-17T01:24:33.453Z,1.11
2023-01-17T01:25:33.600Z,2.71
2023-01-17T01:26:33.521Z,0.89
2023-01-17T01:27:33.542Z,1.48
2023-01-17T01:28:33.570Z,1.97
2023-01-17T01:29:33.624Z,0.20
2023-01-17T01:30:33.418Z,1.32
2023-01-17T01:31:33.655Z,0.91
2023-01-17T01:32:33.723Z,1.39
2023-01-17T01:33:33.607Z,1.55
2023-01-17T01:34:33.543Z,0.43
2023-01-17T01:35:33.600Z,0.08
2023-01-17T01:36:33.674Z,1.15
2023-01-17T01:37:33.663Z,0.49
2023-01-17T01:38:33.513Z,0.14
2023-01-17T01:39:33.755Z,1.65
2023-01-17T01:40:33.605Z,1.35
2023-01-17T01:41:33.720Z,1.57
2023-01-17T01:42:33.647Z,1.20
2023-01-17T01:43:33.664Z,1.41
2023-01-17T01:44:33.763Z,1.50
2023-01-17T01:45:33.796Z,0.49
2023-01-17T01:46:33.684Z,0.53
2023-01-17T01:47:33.605Z,0.50
2023-01-17T01:48:33.826Z,0.71
2023-01-17T01:49:33.829Z,2.01
2023-01-17T01:50:33.809Z,1.55
2023-01-17T01:51:33.735Z,0.64
2023-01-17T01:52:33.780Z,0.23
2023-01-17T01:53:33.853Z,1.57
2023-01-17T01:54:33.688Z,1.70
2023-01-17T01:55:33.718Z,0.58
2023-01-17T01:56:33.747Z,1.19
2023-01-17T01:57:33.901Z,1.20
2023-01-17T01:58:33.705Z,1.40
2023-01-17T01:59:34.027Z,2.68
2023-01-17T02:00:33.799Z,1.66
2023-01-17T02:01:34.006Z,1.14
2023-01-17T02:02:33.966Z,0.48
2023-01-17T02:03:33.988Z,1.82
2023-01-17T02:04:33.942Z,1.07
2023-01-17T02:05:34.100Z,0.22
2023-01-17T02:06:33.995Z,1.03
2023-01-17T02:07:37.106Z,1.60
2023-01-17T02:08:34.982Z,1.38
2023-01-17T02:09:33.861Z,0.35
2023-01-17T02:10:33.947Z,1.03
2023-01-17T02:11:34.018Z,1.49
2023-01-17T02:12:33.913Z,1.13
2023-01-17T02:13:33.941Z,1.60
2023-01-17T02:14:34.088Z,1.38
2023-01-17T02:15:34.060Z,1.67
2023-01-17T02:16:34.091Z,0.26
2023-01-17T02:17:39.968Z,0.32
2023-01-17T02:18:33.926Z,0.70
2023-01-17T02:19:33.989Z,0.43
2023-01-17T02:20:36.862Z,0.32
2023-01-17T02:21:34.009Z,0.78
2023-01-17T02:22:34.098Z,0.33
2023-01-17T02:23:34.035Z,0.33
2023-01-17T02:24:34.061Z,0.52
2023-01-17T02:25:34.049Z,0.64
2023-01-17T02:26:34.060Z,1.58
2023-01-17T02:27:34.094Z,0.83
2023-01-17T02:28:34.065Z,0.61
2023-01-17T02:29:34.033Z,1.04
2023-01-17T02:30:34.068Z,1.39
2023-01-17T02:31:34.107Z,0.81
2023-01-17T02:32:34.067Z,0.26
2023-01-17T02:33:34.044Z,1.23
2023-01-17T02:34:34.074Z,0.77
2023-01-17T02:35:34.076Z,1.33
2023-01-17T02:36:34.083Z,1.30
2023-01-17T02:37:34.056Z,1.26
2023-01-17T02:38:34.067Z,1.54
2023-01-17T02:39:34.062Z,1.73
2023-01-17T02:40:34.068Z,1.64
2023-01-17T02:41:34.053Z,1.23
2023-01-17T02:42:34.074Z,1.63
2023-01-17T02:43:34.048Z,1.87
2023-01-17T02:44:34.069Z,0.94
2023-01-17T02:45:34.070Z,1.32
2023-01-17T02:46:34.075Z,0.21
2023-01-17T02:47:34.076Z,1.07
2023-01-17T02:48:34.032Z,1.32
2023-01-17T02:49:34.043Z,0.38
2023-01-17T02:50:33.853Z,0.45
2023-01-17T02:51:34.068Z,0.36
2023-01-17T02:52:34.064Z,1.46
2023-01-17T02:53:34.078Z,0.87
2023-01-17T02:54:34.061Z,1.48
2023-01-17T02:55:34.081Z,0.87
2023-01-17T02:56:34.071Z,0.87
2023-01-17T02:57:34.071Z,0.82
2023-01-17T02:58:34.119Z,0.96
2023-01-17T02:59:34.096Z,1.13
2023-01-17T03:00:34.121Z,1.22
2023-01-17T03:01:34.158Z,0.80
2023-01-17T03:02:34.158Z,0.94
2023-01-17T03:03:34.067Z,0.53
2023-01-17T03:04:34.098Z,0.61
2023-01-17T03:05:34.070Z,1.24
2023-01-17T03:06:34.079Z,0.79
2023-01-17T03:07:34.142Z,0.15
2023-01-17T03:08:34.097Z,1.42
2023-01-17T03:09:33.923Z,0.35
2023-01-17T03:10:34.104Z,0.91
2023-01-17T03:11:34.063Z,1.13
2023-01-17T03:12:34.017Z,0.44
2023-01-17T03:13:34.044Z,0.31
2023-01-17T03:14:34.131Z,1.02
2023-01-17T03:15:34.107Z,1.64
2023-01-17T03:16:34.137Z,1.35
2023-01-17T03:17:34.112Z,0.69
2023-01-17T03:18:34.099Z,0.36
2023-01-17T03:19:34.139Z,0.94
2023-01-17T03:20:34.095Z,1.66
2023-01-17T03:21:34.097Z,0.65
2023-01-17T03:22:34.103Z,1.53
2023-01-17T03:23:34.083Z,0.44
2023-01-17T03:24:34.125Z,1.66
2023-01-17T03:25:34.130Z,1.04
2023-01-17T03:26:33.884Z,1.56
2023-01-17T03:27:34.087Z,1.43
2023-01-17T03:28:34.109Z,0.53
2023-01-17T03:29:34.109Z,1.34
2023-01-17T03:30:34.128Z,0.35
2023-01-17T03:31:34.103Z,0.40
2023-01-17T03:32:34.109Z,0.45
2023-01-17T03:33:34.112Z,1.80
2023-01-17T03:34:34.123Z,1.99
2023-01-17T03:35:34.119Z,1.24
2023-01-17T03:36:34.104Z,1.26
2023-01-17T03:37:34.003Z,1.51
2023-01-17T03:38:34.125Z,0.58
2023-01-17T03:39:34.139Z,0.56
2023-01-17T03:40:34.119Z,1.20
2023-01-17T03:41:34.111Z,0.83
2023-01-17T03:42:34.097Z,0.61
2023-01-17T03:43:34.142Z,1.27
2023-01-17T03:44:34.112Z,1.07
2023-01-17T03:45:34.138Z,0.99
2023-01-17T03:46:34.117Z,0.15
2023-01-17T03:47:34.145Z,0.30
2023-01-17T03:48:34.072Z,0.90
2023-01-17T03:49:34.129Z,1.50
2023-01-17T03:50:34.125Z,0.87
2023-01-17T03:51:34.055Z,0.64
2023-01-17T03:52:34.123Z,0.05
2023-01-17T03:53:34.183Z,1.12
2023-01-17T03:54:34.132Z,0.72
2023-01-17T03:55:34.141Z,0.48
2023-01-17T03:56:34.121Z,0.44
2023-01-17T03:57:34.132Z,1.09
2023-01-17T03:58:34.134Z,0.91
2023-01-17T03:59:34.222Z,0.30
2023-01-17T04:00:33.913Z,0.24
2023-01-17T04:01:34.240Z,0.58
2023-01-17T04:02:34.175Z,0.08
2023-01-17T04:03:34.099Z,0.55
2023-01-17T04:04:34.140Z,0.31
2023-01-17T04:05:34.137Z,1.12
2023-01-17T04:06:34.117Z,0.98
2023-01-17T04:07:34.129Z,0.99
2023-01-17T04:08:34.112Z,0.50
2023-01-17T04:09:34.233Z,0.00
2023-01-17T04:10:34.140Z,0.04
2023-01-17T04:11:34.139Z,0.23
2023-01-17T04:12:34.139Z,0.35
2023-01-17T04:13:34.139Z,0.00
2023-01-17T04:14:34.166Z,0.00
2023-01-17T04:15:34.148Z,0.04
2023-01-17T04:16:34.216Z,0.03
2023-01-17T04:17:34.174Z,0.01
2023-01-17T04:18:34.145Z,0.04
2023-01-17T04:19:34.153Z,0.78
2023-01-17T04:20:34.859Z,0.42
2023-01-17T04:21:34.137Z,0.04
2023-01-17T04:22:34.076Z,0.27
2023-01-17T04:23:34.156Z,0.28
2023-01-17T04:24:34.149Z,0.04
2023-01-17T04:25:34.151Z,0.18
2023-01-17T04:26:33.945Z,0.38
2023-01-17T04:27:33.933Z,0.01
2023-01-17T04:28:34.178Z,0.00
2023-01-17T04:29:34.026Z,0.01
2023-01-17T04:30:34.208Z,2.21
2023-01-17T04:31:34.203Z,0.47
2023-01-17T04:32:34.201Z,0.04
2023-01-17T04:33:34.220Z,0.01
2023-01-17T04:34:34.162Z,0.01
2023-01-17T04:35:34.186Z,0.16
2023-01-17T04:36:34.146Z,0.00
2023-01-17T04:37:34.168Z,0.00
2023-01-17T04:38:34.157Z,0.00
2023-01-17T04:39:34.064Z,0.00
2023-01-17T04:40:34.176Z,0.00
2023-01-17T04:41:34.142Z,0.00
2023-01-17T04:42:34.151Z,0.00
2023-01-17T04:43:34.153Z,0.01
2023-01-17T04:44:34.168Z,0.19
2023-01-17T04:45:34.156Z,0.02
2023-01-17T04:46:34.143Z,0.56
2023-01-17T04:47:34.228Z,0.23
2023-01-17T04:48:34.181Z,0.98
2023-01-17T04:49:34.164Z,0.42
2023-01-17T04:50:34.198Z,0.55
2023-01-17T04:51:34.199Z,0.27
2023-01-17T04:52:34.236Z,0.56
2023-01-17T04:53:34.215Z,0.26
2023-01-17T04:54:34.270Z,0.01
2023-01-17T04:55:34.245Z,0.03
2023-01-17T04:56:34.248Z,0.70
2023-01-17T04:57:34.311Z,0.95
2023-01-17T04:58:34.350Z,0.43
2023-01-17T04:59:34.303Z,0.55
2023-01-17T05:00:34.313Z,0.49
2023-01-17T05:01:34.324Z,0.35
2023-01-17T05:02:34.431Z,0.74
2023-01-17T05:03:34.344Z,0.01
2023-01-17T05:04:34.379Z,0.00
2023-01-17T05:05:34.370Z,0.00
2023-01-17T05:06:34.383Z,0.00
2023-01-17T05:07:35.753Z,0.17
2023-01-17T05:08:34.413Z,0.01
2023-01-17T05:09:34.424Z,0.00
2023-01-17T05:10:34.395Z,0.00
2023-01-17T05:11:34.465Z,0.30
2023-01-17T05:12:34.501Z,0.01
2023-01-17T05:13:34.442Z,0.00
2023-01-17T05:14:34.500Z,0.00
2023-01-17T05:15:34.494Z,1.05
2023-01-17T05:16:34.437Z,0.38
2023-01-17T05:17:34.542Z,0.72
2023-01-17T05:18:34.541Z,0.48
2023-01-17T05:19:34.558Z,1.48
2023-01-17T05:20:34.588Z,0.47
2023-01-17T05:21:34.552Z,0.25
2023-01-17T05:22:34.549Z,0.01
2023-01-17T05:23:34.551Z,0.16
2023-01-17T05:24:34.460Z,0.55
2023-01-17T05:25:34.635Z,0.39
2023-01-17T05:26:34.592Z,0.53
2023-01-17T05:27:34.623Z,0.05
2023-01-17T05:28:34.673Z,0.00
2023-01-17T05:29:34.697Z,0.56
2023-01-17T05:30:34.698Z,0.77
2023-01-17T05:31:34.724Z,0.63
2023-01-17T05:32:34.695Z,0.17
2023-01-17T05:33:34.711Z,0.80
2023-01-17T05:34:34.493Z,0.21
2023-01-17T05:35:34.644Z,0.01
2023-01-17T05:36:34.759Z,0.02
2023-01-17T05:37:34.764Z,0.00
2023-01-17T05:38:34.789Z,0.01
2023-01-17T05:39:34.787Z,0.52
2023-01-17T05:40:34.807Z,0.50
2023-01-17T05:41:34.931Z,0.18
2023-01-17T05:42:34.865Z,0.03
2023-01-17T05:43:34.817Z,0.88
2023-01-17T05:44:34.716Z,0.62
2023-01-17T05:45:34.901Z,0.01
2023-01-17T05:46:34.887Z,0.00
2023-01-17T05:47:34.900Z,0.11
2023-01-17T05:48:34.862Z,0.03
2023-01-17T05:49:34.961Z,0.00
2023-01-17T05:50:34.908Z,0.00
2023-01-17T05:51:34.907Z,0.06
2023-01-17T05:52:34.987Z,0.82
2023-01-17T05:53:34.925Z,0.20
2023-01-17T05:54:34.970Z,0.59
2023-01-17T05:55:34.995Z,0.01
2023-01-17T05:56:35.028Z,0.00
2023-01-17T05:57:34.980Z,0.11
2023-01-17T05:58:35.012Z,0.01
2023-01-17T05:59:37.390Z,0.00
2023-01-17T06:00:35.003Z,0.00
2023-01-17T06:01:35.025Z,0.00
2023-01-17T06:02:35.020Z,0.00
2023-01-17T06:03:34.963Z,0.00
2023-01-17T06:04:34.994Z,0.00
2023-01-17T06:05:35.028Z,0.00
2023-01-17T06:06:34.979Z,0.00
2023-01-17T06:07:35.010Z,0.00
2023-01-17T06:08:35.013Z,0.00
2023-01-17T06:09:35.081Z,0.00
2023-01-17T06:10:34.832Z,0.00
2023-01-17T06:11:34.982Z,0.00
2023-01-17T06:12:35.040Z,0.00
2023-01-17T06:13:34.983Z,0.00
2023-01-17T06:14:35.008Z,0.00
2023-01-17T06:15:35.023Z,0.00
2023-01-17T06:16:35.025Z,0.00
2023-01-17T06:17:34.906Z,0.00
2023-01-17T06:18:35.068Z,0.00
2023-01-17T06:19:35.021Z,0.00
2023-01-17T06:20:35.062Z,0.00
2023-01-17T06:21:34.826Z,0.00
2023-01-17T06:22:34.980Z,0.00
2023-01-17T06:23:35.032Z,0.00
2023-01-17T06:24:35.030Z,0.00
2023-01-17T06:25:35.067Z,0.00
2023-01-17T06:26:35.035Z,0.00
2023-01-17T06:27:35.057Z,0.00
2023-01-17T06:28:35.058Z,0.00
2023-01-17T06:29:34.846Z,0.00
2023-01-17T06:30:35.001Z,0.00
2023-01-17T06:31:35.128Z,0.00
2023-01-17T06:32:35.080Z,0.00
2023-01-17T06:33:35.030Z,0.00
2023-01-17T06:34:35.032Z,0.00
2023-01-17T06:35:35.055Z,0.00
2023-01-17T06:36:35.087Z,0.00
2023-01-17T06:37:35.042Z,0.00
2023-01-17T06:38:34.971Z,0.00
2023-01-17T06:39:35.077Z,0.00
2023-01-17T06:40:35.091Z,0.00
2023-01-17T06:41:35.028Z,0.00
2023-01-17T06:42:35.045Z,0.00
2023-01-17T06:43:35.034Z,0.00
2023-01-17T06:44:35.041Z,0.00
2023-01-17T06:45:35.056Z,0.00
2023-01-17T06:46:35.116Z,0.00
2023-01-17T06:47:35.108Z,0.00
2023-01-17T06:48:35.043Z,0.00
2023-01-17T06:49:35.060Z,0.00
2023-01-17T06:50:34.845Z,0.00
2023-01-17T06:51:35.183Z,0.00
2023-01-17T06:52:35.364Z,0.00
2023-01-17T06:53:35.059Z,0.00
2023-01-17T06:54:34.980Z,0.00
2023-01-17T06:55:35.118Z,0.00
2023-01-17T06:56:35.025Z,0.00
2023-01-17T06:57:35.059Z,0.00
2023-01-17T06:58:35.056Z,0.00
2023-01-17T06:59:35.051Z,0.00
2023-01-17T07:00:35.395Z,0.00
2023-01-17T07:01:35.222Z,0.00
2023-01-17T07:02:35.057Z,0.00
2023-01-17T07:03:34.895Z,0.00
2023-01-17T07:04:35.066Z,0.00
2023-01-17T07:05:35.142Z,0.00
2023-01-17T07:06:35.062Z,0.00
2023-01-17T07:07:35.067Z,0.00
2023-01-17T07:08:35.285Z,0.00
2023-01-17T07:09:35.065Z,0.00
2023-01-17T07:10:35.053Z,0.00
2023-01-17T07:11:35.010Z,0.00
2023-01-17T07:12:35.156Z,0.00
2023-01-17T07:13:36.345Z,0.00
2023-01-17T07:14:35.076Z,0.00
2023-01-17T07:15:35.115Z,0.00
2023-01-17T07:16:35.102Z,0.00
2023-01-17T07:17:35.096Z,0.00
2023-01-17T07:18:34.986Z,0.00
2023-01-17T07:19:35.026Z,0.00
2023-01-17T07:20:35.048Z,0.00
2023-01-17T07:21:35.046Z,0.00
2023-01-17T07:22:35.096Z,0.00
2023-01-17T07:23:34.859Z,0.00
2023-01-17T07:24:35.066Z,0.00
2023-01-17T07:25:35.093Z,0.00
2023-01-17T07:26:35.135Z,0.00
2023-01-17T07:27:35.089Z,0.00
2023-01-17T07:28:35.098Z,0.00
2023-01-17T07:29:35.098Z,0.00
2023-01-17T07:30:35.090Z,0.00
2023-01-17T07:31:35.123Z,0.00
2023-01-17T07:32:35.120Z,0.00
2023-01-17T07:33:35.114Z,0.00
2023-01-17T07:34:34.911Z,0.00
2023-01-17T07:35:35.077Z,0.00
2023-01-17T07:36:35.048Z,0.00
2023-01-17T07:37:35.117Z,0.00
2023-01-17T07:38:35.091Z,0.00
2023-01-17T07:39:35.100Z,0.00
2023-01-17T07:40:41.779Z,0.00
2023-01-17T07:41:35.000Z,0.00
2023-01-17T07:42:35.093Z,0.00
2023-01-17T07:43:35.120Z,0.00
2023-01-17T07:44:35.115Z,0.00
2023-01-17T07:45:35.086Z,0.00
2023-01-17T07:46:35.179Z,0.00
2023-01-17T07:47:35.146Z,0.00
2023-01-17T07:48:34.916Z,0.00
2023-01-17T07:49:35.128Z,0.00
2023-01-17T07:50:35.037Z,0.00
2023-01-17T07:51:35.104Z,0.00
2023-01-17T07:52:35.125Z,0.00
2023-01-17T07:53:35.113Z,0.00
2023-01-17T07:54:35.017Z,0.00
2023-01-17T07:55:35.094Z,0.00
2023-01-17T07:56:35.162Z,0.00
2023-01-17T07:57:35.206Z,0.00
2023-01-17T07:58:35.127Z,0.00
2023-01-17T07:59:35.144Z,0.00
2023-01-17T08:00:35.162Z,0.00
2023-01-17T08:01:35.234Z,0.00
2023-01-17T08:02:34.903Z,0.00
2023-01-17T08:03:35.156Z,0.00
2023-01-17T08:04:35.016Z,0.00
2023-01-17T08:05:35.108Z,0.00
2023-01-17T08:06:35.116Z,0.00
2023-01-17T08:07:35.113Z,0.00
2023-01-17T08:08:35.199Z,0.00
2023-01-17T08:09:35.109Z,0.00
2023-01-17T08:10:35.054Z,0.00
2023-01-17T08:11:35.061Z,0.00
2023-01-17T08:12:35.057Z,0.00
2023-01-17T08:13:35.126Z,0.00
2023-01-17T08:14:35.174Z,0.00
2023-01-17T08:15:35.122Z,0.00
2023-01-17T08:16:35.394Z,0.00
2023-01-17T08:17:35.319Z,0.00
2023-01-17T08:18:35.334Z,0.00
2023-01-17T08:19:35.382Z,0.00
2023-01-17T08:20:35.375Z,0.00
2023-01-17T08:21:35.378Z,0.00
2023-01-17T08:22:35.320Z,0.00
2023-01-17T08:23:35.390Z,0.00
2023-01-17T08:24:35.339Z,0.00
2023-01-17T08:25:35.366Z,0.00
2023-01-17T08:26:35.377Z,0.00
2023-01-17T08:27:36.239Z,0.00
2023-01-17T08:28:35.391Z,0.00
2023-01-17T08:29:35.378Z,0.00
2023-01-17T08:30:35.368Z,0.00
2023-01-17T08:31:35.483Z,0.00
2023-01-17T08:32:35.366Z,0.00
2023-01-17T08:33:35.372Z,0.00
2023-01-17T08:34:35.408Z,0.00
2023-01-17T08:35:36.306Z,0.00
2023-01-17T08:36:35.363Z,0.00
2023-01-17T08:37:35.398Z,0.00
2023-01-17T08:38:35.387Z,0.00
2023-01-17T08:39:35.379Z,0.00
2023-01-17T08:40:35.403Z,0.00
2023-01-17T08:41:35.384Z,0.00
2023-01-17T08:42:35.383Z,0.00
2023-01-17T08:43:35.366Z,0.00
2023-01-17T08:44:35.377Z,0.00
2023-01-17T08:45:35.467Z,0.00
2023-01-17T08:46:35.390Z,0.39
2023-01-17T08:47:35.381Z,0.00
2023-01-17T08:48:35.392Z,0.00
2023-01-17T08:49:35.398Z,0.00
2023-01-17T08:50:35.418Z,0.00
2023-01-17T08:51:35.426Z,0.00
2023-01-17T08:52:35.376Z,0.00
2023-01-17T08:53:35.400Z,0.00
2023-01-17T08:54:35.403Z,0.00
2023-01-17T08:55:35.385Z,0.00
2023-01-17T08:56:35.392Z,0.00
2023-01-17T08:57:35.382Z,0.00
2023-01-17T08:58:35.398Z,0.00
2023-01-17T08:59:35.401Z,0.00
2023-01-17T09:00:35.429Z,0.00
2023-01-17T09:01:35.576Z,0.00
2023-01-17T09:02:35.400Z,0.00
2023-01-17T09:03:35.441Z,0.00
2023-01-17T09:04:35.447Z,0.00
2023-01-17T09:05:35.453Z,0.00
2023-01-17T09:06:35.427Z,0.00
2023-01-17T09:07:35.410Z,0.00
2023-01-17T09:08:35.404Z,0.00
2023-01-17T09:09:35.416Z,0.00
2023-01-17T09:10:35.399Z,0.00
2023-01-17T09:11:35.399Z,0.00
2023-01-17T09:12:35.420Z,0.00
2023-01-17T09:13:35.439Z,0.00
2023-01-17T09:14:35.400Z,0.01
2023-01-17T09:15:35.445Z,0.00
2023-01-17T09:16:35.487Z,0.00
2023-01-17T09:17:35.442Z,0.00
2023-01-17T09:18:35.444Z,0.00
2023-01-17T09:19:35.529Z,0.00
2023-01-17T09:20:35.438Z,0.44
2023-01-17T09:21:35.455Z,0.51
2023-01-17T09:22:35.427Z,0.00
2023-01-17T09:23:35.447Z,0.51
2023-01-17T09:24:35.427Z,0.20
2023-01-17T09:25:35.437Z,0.18
2023-01-17T09:26:35.476Z,0.03
2023-01-17T09:27:35.453Z,0.00
2023-01-17T09:28:35.460Z,0.00
2023-01-17T09:29:35.443Z,0.00
2023-01-17T09:30:35.429Z,0.21
2023-01-17T09:31:35.441Z,0.00
2023-01-17T09:32:35.419Z,0.00
2023-01-17T09:33:35.412Z,0.00
2023-01-17T09:34:35.465Z,0.00
2023-01-17T09:35:35.422Z,0.00
2023-01-17T09:36:35.448Z,0.00
2023-01-17T09:37:35.441Z,0.00
2023-01-17T09:38:35.452Z,0.00
2023-01-17T09:39:35.428Z,0.00
2023-01-17T09:40:35.455Z,0.00
2023-01-17T09:41:35.393Z,0.00
2023-01-17T09:42:35.465Z,0.00
2023-01-17T09:43:35.438Z,0.00
2023-01-17T09:44:35.391Z,0.21
2023-01-17T09:45:35.454Z,0.17
2023-01-17T09:46:35.499Z,0.00
2023-01-17T09:47:35.568Z,0.00
2023-01-17T09:48:35.457Z,0.03
2023-01-17T09:49:35.463Z,0.58
2023-01-17T09:50:35.451Z,0.42
2023-01-17T09:51:35.453Z,0.88
2023-01-17T09:52:35.496Z,0.95
2023-01-17T09:53:35.456Z,0.30
2023-01-17T09:54:35.460Z,0.61
2023-01-17T09:55:35.474Z,0.15
2023-01-17T09:56:35.459Z,0.13
2023-01-17T09:57:35.459Z,0.64
2023-01-17T09:58:35.468Z,0.23
2023-01-17T09:59:35.811Z,0.02
2023-01-17T10:00:35.471Z,0.00
2023-01-17T10:01:35.704Z,0.01
2023-01-17T10:02:35.601Z,0.54
2023-01-17T10:03:35.569Z,0.34
2023-01-17T10:04:35.534Z,1.17
2023-01-17T10:05:35.515Z,0.44
2023-01-17T10:06:35.518Z,0.14
2023-01-17T10:07:35.539Z,0.40
2023-01-17T10:08:35.592Z,0.01
2023-01-17T10:09:35.562Z,0.03
2023-01-17T10:10:35.579Z,0.24
2023-01-17T10:11:35.592Z,0.11
2023-01-17T10:12:35.638Z,0.00
2023-01-17T10:13:35.610Z,0.12
2023-01-17T10:14:35.616Z,0.00
2023-01-17T10:15:35.642Z,0.00
2023-01-17T10:16:35.674Z,0.25
2023-01-17T10:17:35.647Z,0.23
2023-01-17T10:18:35.720Z,0.74
2023-01-17T10:19:35.672Z,0.77
2023-01-17T10:20:35.712Z,0.36
2023-01-17T10:21:35.683Z,0.00
2023-01-17T10:22:35.681Z,0.68
2023-01-17T10:23:35.766Z,0.04
2023-01-17T10:24:35.763Z,0.00
2023-01-17T10:25:35.761Z,0.00
2023-01-17T10:26:35.796Z,0.00
2023-01-17T10:27:35.770Z,0.12
2023-01-17T10:28:35.786Z,0.56
2023-01-17T10:29:35.854Z,0.19
2023-01-17T10:30:35.825Z,0.14
2023-01-17T10:31:35.833Z,0.97
2023-01-17T10:32:35.826Z,0.42
2023-01-17T10:33:35.893Z,0.37
2023-01-17T10:34:35.867Z,0.13
2023-01-17T10:35:35.939Z,0.00
2023-01-17T10:36:35.865Z,0.00
2023-01-17T10:37:35.877Z,0.00
2023-01-17T10:38:36.532Z,0.16
2023-01-17T10:39:35.955Z,0.13
2023-01-17T10:40:35.958Z,0.19
2023-01-17T10:41:35.947Z,0.09
2023-01-17T10:42:35.949Z,0.00
2023-01-17T10:43:35.959Z,0.00
2023-01-17T10:44:36.071Z,0.00
2023-01-17T10:45:35.962Z,0.01
2023-01-17T10:46:35.997Z,0.00
2023-01-17T10:47:35.997Z,0.00
2023-01-17T10:48:36.032Z,0.00
2023-01-17T10:49:36.058Z,0.00
2023-01-17T10:50:36.034Z,0.00
2023-01-17T10:51:36.065Z,0.06
2023-01-17T10:52:36.088Z,0.01
2023-01-17T10:53:36.080Z,0.01
2023-01-17T10:54:36.086Z,0.00
2023-01-17T10:55:36.124Z,0.43
2023-01-17T10:56:36.168Z,0.52
2023-01-17T10:57:36.139Z,0.22
2023-01-17T10:58:36.167Z,0.50
2023-01-17T10:59:36.173Z,0.13
2023-01-17T11:00:36.108Z,0.40
2023-01-17T11:01:36.264Z,0.52
2023-01-17T11:02:36.234Z,0.01
2023-01-17T11:03:36.215Z,0.00
2023-01-17T11:04:36.214Z,0.00
2023-01-17T11:05:36.241Z,0.00
2023-01-17T11:06:43.499Z,0.00
2023-01-17T11:07:36.256Z,0.00
2023-01-17T11:08:36.254Z,0.14
2023-01-17T11:09:36.177Z,0.43
2023-01-17T11:10:36.265Z,0.21
2023-01-17T11:11:36.281Z,0.06
2023-01-17T11:12:36.226Z,0.00
2023-01-17T11:13:36.253Z,0.00
2023-01-17T11:14:36.219Z,0.00
2023-01-17T11:15:36.322Z,0.14
2023-01-17T11:16:36.220Z,0.00
2023-01-17T11:17:36.256Z,0.00
2023-01-17T11:18:36.265Z,0.00
2023-01-17T11:19:36.267Z,0.01
2023-01-17T11:20:36.287Z,0.17
2023-01-17T11:21:36.324Z,0.02
2023-01-17T11:22:36.180Z,0.00
2023-01-17T11:23:36.276Z,0.13
2023-01-17T11:24:36.218Z,0.02
2023-01-17T11:25:36.292Z,0.02
2023-01-17T11:26:36.274Z,0.60
2023-01-17T11:27:36.281Z,0.15
2023-01-17T11:28:36.245Z,0.01
2023-01-17T11:29:37.101Z,0.00
2023-01-17T11:30:36.243Z,0.00
2023-01-17T11:31:36.286Z,0.00
2023-01-17T11:32:36.276Z,0.00
2023-01-17T11:33:36.263Z,0.00
2023-01-17T11:34:36.298Z,0.00
2023-01-17T11:35:36.279Z,0.00
2023-01-17T11:36:36.300Z,0.00
2023-01-17T11:37:36.315Z,0.00
2023-01-17T11:38:36.284Z,0.00
2023-01-17T11:39:36.286Z,0.00
2023-01-17T11:40:36.288Z,0.00
2023-01-17T11:41:36.317Z,0.00
2023-01-17T11:42:36.300Z,0.00
2023-01-17T11:43:36.281Z,0.00
2023-01-17T11:44:36.262Z,0.00
2023-01-17T11:45:36.308Z,0.49
2023-01-17T11:46:36.324Z,0.45
2023-01-17T11:47:36.391Z,0.00
2023-01-17T11:48:36.322Z,0.00
2023-01-17T11:49:36.334Z,0.00
2023-01-17T11:50:36.300Z,0.00
2023-01-17T11:51:36.278Z,0.00
2023-01-17T11:52:36.314Z,0.00
2023-01-17T11:53:36.305Z,0.10
2023-01-17T11:54:36.314Z,0.05
2023-01-17T11:55:36.322Z,0.02
2023-01-17T11:56:36.339Z,0.04
2023-01-17T11:57:36.318Z,0.01
2023-01-17T11:58:36.327Z,0.18
2023-01-17T11:59:36.316Z,0.14
2023-01-17T12:00:36.320Z,0.01
2023-01-17T12:01:36.304Z,0.02
2023-01-17T12:02:36.267Z,0.00
2023-01-17T12:03:36.328Z,0.03
2023-01-17T12:04:36.651Z,0.00
2023-01-17T12:05:36.314Z,0.44
2023-01-17T12:06:47.843Z,0.06
2023-01-17T12:07:36.301Z,0.00
2023-01-17T12:08:36.170Z,0.15
2023-01-17T12:09:36.301Z,0.01
2023-01-17T12:10:36.279Z,0.05
2023-01-17T12:11:36.307Z,0.22
2023-01-17T12:12:36.292Z,0.21
2023-01-17T12:13:36.343Z,0.05
2023-01-17T12:14:36.359Z,0.01
2023-01-17T12:15:36.414Z,0.03
2023-01-17T12:16:36.283Z,0.01
2023-01-17T12:17:36.348Z,0.02
2023-01-17T12:18:36.327Z,0.37
2023-01-17T12:19:36.347Z,0.01
2023-01-17T12:20:36.306Z,0.16
2023-01-17T12:21:36.314Z,0.03
2023-01-17T12:22:36.336Z,0.19
2023-01-17T12:23:36.370Z,0.03
2023-01-17T12:24:36.353Z,0.01
2023-01-17T12:25:36.363Z,0.12
2023-01-17T12:26:36.338Z,0.01
2023-01-17T12:27:36.339Z,0.00
2023-01-17T12:28:36.373Z,0.00
2023-01-17T12:29:36.382Z,0.00
2023-01-17T12:30:36.373Z,0.02
2023-01-17T12:31:36.375Z,0.00
2023-01-17T12:32:36.315Z,0.02
2023-01-17T12:33:36.381Z,0.33
2023-01-17T12:34:36.360Z,0.01
2023-01-17T12:35:35.834Z,0.00
2023-01-17T12:36:35.848Z,0.01
2023-01-17T12:37:35.845Z,0.00
2023-01-17T12:38:35.856Z,0.00
2023-01-17T12:39:35.864Z,0.00
2023-01-17T12:40:35.893Z,0.15
2023-01-17T12:41:35.837Z,0.00
2023-01-17T12:42:35.836Z,0.00
2023-01-17T12:43:35.827Z,0.00
2023-01-17T12:44:35.850Z,0.00
2023-01-17T12:45:35.877Z,0.23
2023-01-17T12:46:35.923Z,0.17
2023-01-17T12:47:35.843Z,0.01
2023-01-17T12:48:35.841Z,0.54
2023-01-17T12:49:35.854Z,0.04
2023-01-17T12:50:35.852Z,0.01
2023-01-17T12:51:35.854Z,0.00
2023-01-17T12:52:35.875Z,0.38
2023-01-17T12:53:35.847Z,0.89
2023-01-17T12:54:36.069Z,0.49
2023-01-17T12:55:35.913Z,0.11
2023-01-17T12:56:35.888Z,0.00
2023-01-17T12:57:35.844Z,0.37
2023-01-17T12:58:35.852Z,0.16
2023-01-17T12:59:35.850Z,1.09
2023-01-17T13:00:35.908Z,0.60
2023-01-17T13:01:35.958Z,1.18
2023-01-17T13:02:35.920Z,0.32
2023-01-17T13:03:35.921Z,0.17
2023-01-17T13:04:38.463Z,0.16
2023-01-17T13:05:35.869Z,0.00
2023-01-17T13:06:35.949Z,0.00
2023-01-17T13:07:35.849Z,0.00
2023-01-17T13:08:36.008Z,0.00
2023-01-17T13:09:35.858Z,0.00
2023-01-17T13:10:35.878Z,0.00
2023-01-17T13:11:35.889Z,0.00
2023-01-17T13:12:35.883Z,0.06
2023-01-17T13:13:35.865Z,0.03
2023-01-17T13:14:35.899Z,0.00
2023-01-17T13:15:35.953Z,0.00
2023-01-17T13:16:35.884Z,0.00
2023-01-17T13:17:35.880Z,0.07
2023-01-17T13:18:35.904Z,0.00